Disclaimer

Please do not use the information listed here in-flight or in-navigation, as they are not provided to us by the airports but are provided by volunteers, so they might be outdated.

Search


Regions


Airport information page

Radio informations:
REMOTE - 118.15 MHz

Airport informations:
Latitude: 44° 18' 14.09" N
Longitude: 143° 24' 14.50" E
Elevation: 80 feet - 24 meters
Operating hours: Remarks
Operating agency: Civil government, landing fees and diplomatic clearance may be required
Timezone: UTC+9
Fuel: N/A

Runway information:
14/32 - 6562 x 148 feet< - >2000 x 45 meters

Recent METARs:
RJEB 150700Z 28009KT 9999 FEW030 SCT050 07/M01 Q1020
RJEB 150700Z 28009KT 9999 FEW030 SCT050 07/M01 Q1020
RJEB 150700Z 28009KT 9999 FEW030 SCT050 07/M01 Q1020

Airport on the map: